Time,TemperatureF,DewpointF,PressureIn,WindDirection,WindDirectionDegrees,WindSpeedMPH,WindSpeedGustMPH,Humidity,HourlyPrecipIn,Conditions,Clouds,dailyrainin,SoftwareType,DateUTC
2013-08-24 00:01:00,72.0,68.9,30.06,North,350,0.0,4.0,90,0.00,,---,0.00,VWS V14.01,2013-08-24 04:01:00,
2013-08-24 00:06:00,72.0,68.9,30.06,NNE,30,0.0,1.0,90,0.00,,---,0.00,VWS V14.01,2013-08-24 04:06:00,
2013-08-24 00:11:00,72.2,69.1,30.06,NE,54,0.0,1.0,90,0.00,,---,0.00,VWS V14.01,2013-08-24 04:11:00,
2013-08-24 00:16:00,72.3,68.9,30.06,NE,44,5.0,5.0,89,0.00,,---,0.00,VWS V14.01,2013-08-24 04:16:00,
2013-08-24 00:21:00,72.5,68.8,30.06,NNW,330,3.0,3.0,88,0.00,,---,0.00,VWS V14.01,2013-08-24 04:21:00,
2013-08-24 00:26:00,72.6,68.8,30.07,North,9,9.0,9.0,88,0.00,,---,0.00,VWS V14.01,2013-08-24 04:26:00,
2013-08-24 00:31:00,72.6,68.5,30.07,ENE,61,0.0,4.0,87,0.00,,---,0.00,VWS V14.01,2013-08-24 04:31:00,
2013-08-24 00:36:00,72.6,68.5,30.07,NE,47,1.0,1.0,87,0.00,,---,0.00,VWS V14.01,2013-08-24 04:36:00,
2013-08-24 00:41:00,72.4,68.3,30.07,NNE,27,3.0,6.0,87,0.00,,---,0.00,VWS V14.01,2013-08-24 04:41:00,
2013-08-24 00:46:00,72.4,68.3,30.07,North,8,0.0,1.0,87,0.00,,---,0.00,VWS V14.01,2013-08-24 04:46:00,
2013-08-24 00:51:00,72.3,68.2,30.07,NE,47,1.0,3.0,87,0.00,,---,0.00,VWS V14.01,2013-08-24 04:51:00,
2013-08-24 00:56:00,72.3,68.2,30.07,NE,36,0.0,1.0,87,0.00,,---,0.00,VWS V14.01,2013-08-24 04:56:00,
2013-08-24 01:01:00,72.2,68.1,30.08,NNE,29,1.0,1.0,87,0.00,,---,0.00,VWS V14.01,2013-08-24 05:01:00,
2013-08-24 01:06:00,72.2,68.1,30.08,NE,46,1.0,1.0,87,0.00,,---,0.00,VWS V14.01,2013-08-24 05:06:00,
2013-08-24 01:11:00,72.0,67.9,30.08,NE,51,1.0,3.0,87,0.00,,---,0.00,VWS V14.01,2013-08-24 05:11:00,
2013-08-24 01:16:00,71.9,68.2,30.08,ENE,60,3.0,5.0,88,0.00,,---,0.00,VWS V14.01,2013-08-24 05:16:00,
2013-08-24 01:21:00,71.8,67.7,30.08,NE,45,6.0,8.0,87,0.00,,---,0.00,VWS V14.01,2013-08-24 05:21:00,
2013-08-24 01:26:00,71.6,67.5,30.09,ENE,61,5.0,6.0,87,0.00,,---,0.00,VWS V14.01,2013-08-24 05:26:00,
2013-08-24 01:32:00,71.5,67.8,30.09,East,79,0.0,4.0,88,0.00,,---,0.00,VWS V14.01,2013-08-24 05:32:00,
2013-08-24 01:37:00,71.4,67.7,30.09,East,99,0.0,3.0,88,0.00,,---,0.00,VWS V14.01,2013-08-24 05:37:00,
2013-08-24 01:42:00,71.2,67.5,30.09,ENE,57,4.0,5.0,88,0.00,,---,0.00,VWS V14.01,2013-08-24 05:42:00,
2013-08-24 01:47:00,71.2,67.8,30.09,ENE,72,2.0,3.0,89,0.00,,---,0.00,VWS V14.01,2013-08-24 05:47:00,
2013-08-24 01:52:00,71.1,67.7,30.09,NE,54,5.0,7.0,89,0.00,,---,0.00,VWS V14.01,2013-08-24 05:52:00,
2013-08-24 01:57:00,71.0,67.6,30.09,East,83,0.0,8.0,89,0.00,,---,0.00,VWS V14.01,2013-08-24 05:57:00,
2013-08-24 02:02:00,70.9,67.5,30.08,North,1,0.0,4.0,89,0.00,,---,0.00,VWS V14.01,2013-08-24 06:02:00,
2013-08-24 02:07:00,70.8,67.4,30.08,NE,36,1.0,4.0,89,0.00,,---,0.00,VWS V14.01,2013-08-24 06:07:00,
2013-08-24 02:12:00,70.7,67.6,30.08,NE,44,1.0,5.0,90,0.00,,---,0.00,VWS V14.01,2013-08-24 06:12:00,
2013-08-24 02:17:00,70.6,67.5,30.08,NE,40,2.0,4.0,90,0.00,,---,0.00,VWS V14.01,2013-08-24 06:17:00,
2013-08-24 02:22:00,70.5,67.4,30.08,NE,36,3.0,4.0,90,0.00,,---,0.00,VWS V14.01,2013-08-24 06:22:00,
2013-08-24 02:27:00,70.5,67.4,30.08,NNW,335,0.0,1.0,90,0.00,,---,0.00,VWS V14.01,2013-08-24 06:27:00,
2013-08-24 02:32:00,70.5,67.4,30.08,NE,51,5.0,6.0,90,0.00,,---,0.00,VWS V14.01,2013-08-24 06:32:00,
2013-08-24 02:37:00,70.4,67.3,30.09,NE,49,1.0,4.0,90,0.00,,---,0.00,VWS V14.01,2013-08-24 06:37:00,
2013-08-24 02:42:00,70.3,67.2,30.09,NE,39,7.0,8.0,90,0.00,,---,0.00,VWS V14.01,2013-08-24 06:42:00,
2013-08-24 02:47:00,70.3,67.2,30.09,NNW,328,2.0,9.0,90,0.00,,---,0.00,VWS V14.01,2013-08-24 06:47:00,
2013-08-24 02:52:00,70.2,66.8,30.09,North,357,4.0,13.0,89,0.00,,---,0.00,VWS V14.01,2013-08-24 06:52:00,
2013-08-24 02:57:00,70.1,66.7,30.09,NE,43,2.0,10.0,89,0.00,,---,0.00,VWS V14.01,2013-08-24 06:57:00,
2013-08-24 03:02:00,70.0,66.6,30.09,NNW,339,2.0,8.0,89,0.00,,---,0.00,VWS V14.01,2013-08-24 07:02:00,
2013-08-24 03:07:00,69.9,66.5,30.09,NE,45,4.0,6.0,89,0.00,,---,0.00,VWS V14.01,2013-08-24 07:07:00,
2013-08-24 03:12:00,69.8,66.4,30.09,NE,43,2.0,5.0,89,0.00,,---,0.00,VWS V14.01,2013-08-24 07:12:00,
2013-08-24 03:17:00,69.6,66.2,30.09,ENE,58,14.0,16.0,89,0.00,,---,0.00,VWS V14.01,2013-08-24 07:17:00,
2013-08-24 03:22:00,69.4,65.7,30.09,North,4,3.0,16.0,88,0.00,,---,0.00,VWS V14.01,2013-08-24 07:22:00,
2013-08-24 03:27:00,69.3,65.6,30.09,NE,34,1.0,9.0,88,0.00,,---,0.00,VWS V14.01,2013-08-24 07:27:00,
2013-08-24 03:32:00,69.2,65.5,30.09,NNE,33,4.0,8.0,88,0.00,,---,0.00,VWS V14.01,2013-08-24 07:32:00,
2013-08-24 03:37:00,69.1,65.7,30.09,NE,46,0.0,2.0,89,0.00,,---,0.00,VWS V14.01,2013-08-24 07:37:00,
2013-08-24 03:43:00,68.9,65.5,30.10,ENE,63,4.0,9.0,89,0.00,,---,0.00,VWS V14.01,2013-08-24 07:43:00,
2013-08-24 03:48:00,68.7,65.3,30.10,ENE,75,1.0,9.0,89,0.00,,---,0.00,VWS V14.01,2013-08-24 07:48:00,
2013-08-24 03:53:00,68.5,65.1,30.10,NE,47,1.0,5.0,89,0.00,,---,0.00,VWS V14.01,2013-08-24 07:53:00,
2013-08-24 03:58:00,68.4,65.0,30.10,NE,49,3.0,8.0,89,0.00,,---,0.00,VWS V14.01,2013-08-24 07:58:00,
2013-08-24 04:03:00,68.2,64.8,30.10,NE,56,4.0,4.0,89,0.00,,---,0.00,VWS V14.01,2013-08-24 08:03:00,
2013-08-24 04:08:00,68.1,64.7,30.10,NE,43,0.0,3.0,89,0.00,,---,0.00,VWS V14.01,2013-08-24 08:08:00,
2013-08-24 04:13:00,68.0,64.6,30.11,NE,51,3.0,10.0,89,0.00,,---,0.00,VWS V14.01,2013-08-24 08:13:00,
2013-08-24 04:18:00,67.9,64.5,30.11,NNE,20,3.0,11.0,89,0.00,,---,0.00,VWS V14.01,2013-08-24 08:18:00,
2013-08-24 04:23:00,67.8,64.4,30.11,ENE,63,11.0,11.0,89,0.00,,---,0.00,VWS V14.01,2013-08-24 08:23:00,
2013-08-24 04:28:00,67.7,64.3,30.11,NNW,335,2.0,10.0,89,0.00,,---,0.00,VWS V14.01,2013-08-24 08:28:00,
2013-08-24 04:33:00,67.7,64.3,30.12,NE,49,0.0,4.0,89,0.00,,---,0.00,VWS V14.01,2013-08-24 08:33:00,
2013-08-24 04:38:00,67.6,64.2,30.12,NNE,27,1.0,6.0,89,0.00,,---,0.00,VWS V14.01,2013-08-24 08:38:00,
2013-08-24 04:43:00,67.5,64.2,30.12,North,8,1.0,10.0,89,0.00,,---,0.00,VWS V14.01,2013-08-24 08:43:00,
2013-08-24 04:48:00,67.4,64.1,30.13,North,4,4.0,6.0,89,0.00,,---,0.00,VWS V14.01,2013-08-24 08:48:00,
2013-08-24 04:53:00,67.2,63.8,30.13,ENE,62,3.0,5.0,89,0.00,,---,0.00,VWS V14.01,2013-08-24 08:53:00,
2013-08-24 04:58:00,67.1,63.8,30.13,NE,44,9.0,9.0,89,0.00,,---,0.00,VWS V14.01,2013-08-24 08:58:00,
2013-08-24 05:03:00,66.9,63.6,30.13,NE,49,3.0,10.0,89,0.00,,---,0.00,VWS V14.01,2013-08-24 09:03:00,
2013-08-24 05:08:00,66.8,63.8,30.13,NNE,22,3.0,8.0,90,0.00,,---,0.00,VWS V14.01,2013-08-24 09:08:00,
2013-08-24 05:13:00,66.8,63.8,30.14,NNE,32,0.0,8.0,90,0.00,,---,0.00,VWS V14.01,2013-08-24 09:13:00,
2013-08-24 05:18:00,66.7,63.7,30.14,ENE,57,3.0,8.0,90,0.00,,---,0.00,VWS V14.01,2013-08-24 09:18:00,
2013-08-24 05:23:00,66.7,63.7,30.14,NE,44,2.0,16.0,90,0.00,,---,0.00,VWS V14.01,2013-08-24 09:23:00,
2013-08-24 05:28:00,66.6,63.6,30.14,NE,46,0.0,11.0,90,0.00,,---,0.00,VWS V14.01,2013-08-24 09:28:00,
2013-08-24 05:33:00,66.6,63.6,30.14,NNE,32,1.0,11.0,90,0.00,,---,0.00,VWS V14.01,2013-08-24 09:33:00,
2013-08-24 05:38:00,66.5,63.5,30.14,NNE,32,1.0,12.0,90,0.00,,---,0.00,VWS V14.01,2013-08-24 09:38:00,
2013-08-24 05:43:00,66.6,63.9,30.14,NE,37,0.0,2.0,91,0.00,,---,0.00,VWS V14.01,2013-08-24 09:43:00,
2013-08-24 05:48:00,66.5,63.5,30.14,NE,41,3.0,10.0,90,0.00,,---,0.00,VWS V14.01,2013-08-24 09:48:00,
2013-08-24 05:53:00,66.4,63.7,30.14,NNE,29,2.0,4.0,91,0.00,,---,0.00,VWS V14.01,2013-08-24 09:53:00,
2013-08-24 05:58:00,66.5,63.8,30.14,NE,39,2.0,5.0,91,0.00,,---,0.00,VWS V14.01,2013-08-24 09:58:00,
2013-08-24 06:04:00,66.5,63.8,30.14,ENE,62,9.0,9.0,91,0.00,,---,0.00,VWS V14.01,2013-08-24 10:04:00,
2013-08-24 06:09:00,66.5,63.8,30.15,NE,34,4.0,11.0,91,0.00,,---,0.00,VWS V14.01,2013-08-24 10:09:00,
2013-08-24 06:14:00,66.6,63.9,30.15,NE,41,3.0,8.0,91,0.00,,---,0.00,VWS V14.01,2013-08-24 10:14:00,
2013-08-24 06:19:00,66.6,63.9,30.15,NNW,333,2.0,8.0,91,0.00,,---,0.00,VWS V14.01,2013-08-24 10:19:00,
2013-08-24 06:24:00,66.6,63.9,30.14,NE,54,6.0,10.0,91,0.00,,---,0.00,VWS V14.01,2013-08-24 10:24:00,
2013-08-24 06:29:00,66.6,63.6,30.15,NNE,20,6.0,10.0,90,0.00,,---,0.00,VWS V14.01,2013-08-24 10:29:00,
2013-08-24 06:34:00,66.6,63.6,30.15,NE,53,7.0,8.0,90,0.00,,---,0.00,VWS V14.01,2013-08-24 10:34:00,
2013-08-24 06:39:00,66.7,63.7,30.15,NNW,330,4.0,7.0,90,0.00,,---,0.00,VWS V14.01,2013-08-24 10:39:00,
2013-08-24 06:44:00,66.7,63.7,30.16,NE,47,4.0,8.0,90,0.00,,---,0.00,VWS V14.01,2013-08-24 10:44:00,
2013-08-24 06:49:00,66.6,63.6,30.16,North,359,4.0,8.0,90,0.00,,---,0.00,VWS V14.01,2013-08-24 10:49:00,
2013-08-24 06:54:00,66.7,63.7,30.16,NE,45,0.0,3.0,90,0.00,,---,0.00,VWS V14.01,2013-08-24 10:54:00,
2013-08-24 06:59:00,66.6,63.6,30.16,ENE,76,1.0,7.0,90,0.00,,---,0.00,VWS V14.01,2013-08-24 10:59:00,
2013-08-24 07:04:00,66.6,63.6,30.17,NE,36,3.0,8.0,90,0.00,,---,0.00,VWS V14.01,2013-08-24 11:04:00,
2013-08-24 07:09:00,66.6,63.6,30.17,NNE,30,4.0,10.0,90,0.00,,---,0.00,VWS V14.01,2013-08-24 11:09:00,
2013-08-24 07:14:00,66.6,63.6,30.17,NNW,346,1.0,12.0,90,0.00,,---,0.00,VWS V14.01,2013-08-24 11:14:00,
2013-08-24 07:19:00,66.5,63.5,30.17,NNW,335,5.0,12.0,90,0.00,,---,0.00,VWS V14.01,2013-08-24 11:19:00,
2013-08-24 07:24:00,66.5,63.5,30.17,NNE,26,0.0,9.0,90,0.00,,---,0.00,VWS V14.01,2013-08-24 11:24:00,
2013-08-24 07:29:00,66.5,63.5,30.17,NE,37,3.0,9.0,90,0.00,,---,0.00,VWS V14.01,2013-08-24 11:29:00,
2013-08-24 07:34:00,66.5,63.5,30.18,NE,39,2.0,13.0,90,0.00,,---,0.00,VWS V14.01,2013-08-24 11:34:00,
2013-08-24 07:39:00,66.5,63.5,30.18,North,11,8.0,11.0,90,0.00,,---,0.00,VWS V14.01,2013-08-24 11:39:00,
2013-08-24 07:44:00,66.5,63.5,30.18,ENE,62,7.0,7.0,90,0.00,,---,0.00,VWS V14.01,2013-08-24 11:44:00,
2013-08-24 07:49:00,66.6,63.6,30.19,ENE,57,2.0,7.0,90,0.00,,---,0.00,VWS V14.01,2013-08-24 11:49:00,
2013-08-24 07:54:00,66.6,63.6,30.19,ENE,63,7.0,7.0,90,0.00,,---,0.00,VWS V14.01,2013-08-24 11:54:00,
2013-08-24 07:59:00,66.7,63.7,30.19,NE,44,3.0,8.0,90,0.00,,---,0.00,VWS V14.01,2013-08-24 11:59:00,
2013-08-24 08:04:00,66.7,63.7,30.19,NE,47,5.0,5.0,90,0.00,,---,0.00,VWS V14.01,2013-08-24 12:04:00,
2013-08-24 08:09:00,66.7,63.7,30.19,NNW,335,3.0,7.0,90,0.00,,---,0.00,VWS V14.01,2013-08-24 12:09:00,
2013-08-24 08:14:00,66.7,63.7,30.19,NE,37,1.0,4.0,90,0.00,,---,0.00,VWS V14.01,2013-08-24 12:14:00,
2013-08-24 08:20:00,66.7,63.7,30.20,NNW,328,1.0,10.0,90,0.00,,---,0.00,VWS V14.01,2013-08-24 12:20:00,
2013-08-24 08:25:00,66.7,63.4,30.20,ENE,65,5.0,11.0,89,0.00,,---,0.00,VWS V14.01,2013-08-24 12:25:00,
2013-08-24 08:30:00,66.7,63.7,30.20,NE,45,4.0,5.0,90,0.00,,---,0.00,VWS V14.01,2013-08-24 12:30:00,
2013-08-24 08:35:00,66.9,63.6,30.20,NNE,25,1.0,10.0,89,0.00,,---,0.00,VWS V14.01,2013-08-24 12:35:00,
2013-08-24 08:40:00,67.0,63.7,30.20,NE,53,3.0,13.0,89,0.00,,---,0.00,VWS V14.01,2013-08-24 12:40:00,
2013-08-24 08:45:00,67.3,63.6,30.20,NE,40,1.0,8.0,88,0.00,,---,0.00,VWS V14.01,2013-08-24 12:45:00,
2013-08-24 08:50:00,67.6,63.9,30.20,NNE,32,2.0,8.0,88,0.00,,---,0.00,VWS V14.01,2013-08-24 12:50:00,
2013-08-24 08:55:00,67.9,64.2,30.20,ENE,67,0.0,11.0,88,0.00,,---,0.00,VWS V14.01,2013-08-24 12:55:00,
2013-08-24 09:00:00,68.4,64.4,30.20,NE,44,2.0,7.0,87,0.00,,---,0.00,VWS V14.01,2013-08-24 13:00:00,
2013-08-24 09:05:00,68.7,63.7,30.20,NNE,16,5.0,15.0,84,0.00,,---,0.00,VWS V14.01,2013-08-24 13:05:00,
2013-08-24 09:10:00,69.1,64.4,30.20,NNE,15,3.0,12.0,85,0.00,,---,0.00,VWS V14.01,2013-08-24 13:10:00,
2013-08-24 09:15:00,69.3,63.9,30.21,NNE,22,2.0,14.0,83,0.00,,---,0.00,VWS V14.01,2013-08-24 13:15:00,
2013-08-24 09:20:00,69.4,64.0,30.21,ENE,66,4.0,9.0,83,0.00,,---,0.00,VWS V14.01,2013-08-24 13:20:00,
2013-08-24 09:25:00,69.7,64.0,30.21,NNE,22,6.0,16.0,82,0.00,,---,0.00,VWS V14.01,2013-08-24 13:25:00,
2013-08-24 09:30:00,69.8,64.4,30.21,NE,43,9.0,14.0,83,0.00,,---,0.00,VWS V14.01,2013-08-24 13:30:00,
2013-08-24 09:35:00,69.9,64.5,30.21,NNW,338,1.0,11.0,83,0.00,,---,0.00,VWS V14.01,2013-08-24 13:35:00,
2013-08-24 09:40:00,70.5,64.4,30.21,NNE,30,2.0,6.0,81,0.00,,---,0.00,VWS V14.01,2013-08-24 13:40:00,
2013-08-24 09:45:00,71.2,65.1,30.22,ENE,59,1.0,8.0,81,0.00,,---,0.00,VWS V14.01,2013-08-24 13:45:00,
2013-08-24 09:50:00,71.3,64.8,30.22,North,360,1.0,11.0,80,0.00,,---,0.00,VWS V14.01,2013-08-24 13:50:00,
2013-08-24 09:55:00,71.2,64.7,30.22,NE,49,7.0,11.0,80,0.00,,---,0.00,VWS V14.01,2013-08-24 13:55:00,
2013-08-24 10:00:00,71.4,65.3,30.22,NW,319,0.0,10.0,81,0.00,,---,0.00,VWS V14.01,2013-08-24 14:00:00,
2013-08-24 10:05:00,71.7,64.8,30.22,NE,47,2.0,7.0,79,0.00,,---,0.00,VWS V14.01,2013-08-24 14:05:00,
2013-08-24 10:10:00,71.6,64.8,30.22,North,354,2.0,8.0,79,0.00,,---,0.00,VWS V14.01,2013-08-24 14:10:00,
2013-08-24 10:15:00,71.8,64.9,30.22,NE,40,4.0,12.0,79,0.00,,---,0.00,VWS V14.01,2013-08-24 14:15:00,
2013-08-24 10:20:00,72.0,64.8,30.22,NE,45,3.0,10.0,78,0.00,,---,0.00,VWS V14.01,2013-08-24 14:20:00,
2013-08-24 10:25:00,72.3,65.4,30.22,NNE,20,8.0,13.0,79,0.00,,---,0.00,VWS V14.01,2013-08-24 14:25:00,
2013-08-24 10:30:00,72.4,65.5,30.22,NNW,333,3.0,13.0,79,0.00,,---,0.00,VWS V14.01,2013-08-24 14:30:00,
2013-08-24 10:36:00,72.6,65.3,30.23,NE,53,9.0,15.0,78,0.00,,---,0.00,VWS V14.01,2013-08-24 14:36:00,
2013-08-24 10:41:00,72.4,64.8,30.23,NNE,28,4.0,13.0,77,0.00,,---,0.00,VWS V14.01,2013-08-24 14:41:00,
2013-08-24 10:46:00,72.2,65.0,30.23,ENE,63,2.0,15.0,78,0.00,,---,0.00,VWS V14.01,2013-08-24 14:46:00,
2013-08-24 10:51:00,72.4,65.2,30.23,ENE,68,4.0,11.0,78,0.00,,---,0.00,VWS V14.01,2013-08-24 14:51:00,
2013-08-24 10:56:00,73.1,65.8,30.23,NE,43,0.0,10.0,78,0.00,,---,0.00,VWS V14.01,2013-08-24 14:56:00,
2013-08-24 11:01:00,73.3,64.9,30.23,ENE,63,4.0,14.0,75,0.00,,---,0.00,VWS V14.01,2013-08-24 15:01:00,
2013-08-24 11:06:00,73.3,65.3,30.23,ENE,60,4.0,10.0,76,0.00,,---,0.00,VWS V14.01,2013-08-24 15:06:00,
2013-08-24 11:11:00,73.7,65.7,30.23,NE,53,5.0,11.0,76,0.00,,---,0.00,VWS V14.01,2013-08-24 15:11:00,
2013-08-24 11:16:00,73.9,65.9,30.23,NE,51,6.0,10.0,76,0.00,,---,0.00,VWS V14.01,2013-08-24 15:16:00,
2013-08-24 11:21:00,74.1,64.9,30.23,NE,53,3.0,11.0,73,0.00,,---,0.00,VWS V14.01,2013-08-24 15:21:00,
2013-08-24 11:26:00,74.0,64.4,30.23,NE,49,7.0,11.0,72,0.00,,---,0.00,VWS V14.01,2013-08-24 15:26:00,
2013-08-24 11:31:00,74.6,65.8,30.23,ENE,76,1.0,11.0,74,0.00,,---,0.00,VWS V14.01,2013-08-24 15:31:00,
2013-08-24 11:36:00,74.9,64.5,30.23,ESE,111,3.0,14.0,70,0.00,,---,0.00,VWS V14.01,2013-08-24 15:36:00,
2013-08-24 11:41:00,74.9,64.5,30.23,North,9,6.0,10.0,70,0.00,,---,0.00,VWS V14.01,2013-08-24 15:41:00,
2013-08-24 11:46:00,75.3,65.3,30.23,East,82,1.0,9.0,71,0.00,,---,0.00,VWS V14.01,2013-08-24 15:46:00,
2013-08-24 11:51:00,75.5,65.4,30.23,NE,53,3.0,12.0,71,0.00,,---,0.00,VWS V14.01,2013-08-24 15:51:00,
2013-08-24 11:56:00,76.0,65.9,30.23,NE,51,4.0,9.0,71,0.00,,---,0.00,VWS V14.01,2013-08-24 15:56:00,
2013-08-24 12:01:00,76.4,65.9,30.23,East,82,2.0,11.0,70,0.00,,---,0.00,VWS V14.01,2013-08-24 16:01:00,
2013-08-24 12:06:00,76.4,65.5,30.23,NE,51,2.0,2.0,69,0.00,,---,0.00,VWS V14.01,2013-08-24 16:06:00,
2013-08-24 12:11:00,76.3,65.0,30.23,ENE,59,6.0,7.0,68,0.00,,---,0.00,VWS V14.01,2013-08-24 16:11:00,
2013-08-24 12:16:00,76.3,65.0,30.23,ENE,58,6.0,7.0,68,0.00,,---,0.00,VWS V14.01,2013-08-24 16:16:00,
2013-08-24 12:21:00,76.3,65.0,30.23,NNE,26,3.0,6.0,68,0.00,,---,0.00,VWS V14.01,2013-08-24 16:21:00,
2013-08-24 12:26:00,76.0,64.7,30.23,North,352,0.0,0.0,68,0.00,,---,0.00,VWS V14.01,2013-08-24 16:26:00,
2013-08-24 12:31:00,76.2,64.9,30.23,NE,46,5.0,5.0,68,0.00,,---,0.00,VWS V14.01,2013-08-24 16:31:00,
2013-08-24 12:36:00,76.3,66.2,30.23,NE,48,0.0,0.0,71,0.00,,---,0.00,VWS V14.01,2013-08-24 16:36:00,
2013-08-24 12:41:00,76.4,65.1,30.23,NE,51,6.0,9.0,68,0.00,,---,0.00,VWS V14.01,2013-08-24 16:41:00,
2013-08-24 12:46:00,76.3,64.6,30.23,NE,52,3.0,4.0,67,0.00,,---,0.00,VWS V14.01,2013-08-24 16:46:00,
2013-08-24 12:51:00,76.6,65.3,30.23,NNE,19,2.0,4.0,68,0.00,,---,0.00,VWS V14.01,2013-08-24 16:51:00,
2013-08-24 12:56:00,76.6,65.3,30.23,NE,46,4.0,4.0,68,0.00,,---,0.00,VWS V14.01,2013-08-24 16:56:00,
2013-08-24 13:01:00,77.0,65.6,30.23,NE,50,4.0,4.0,68,0.00,,---,0.00,VWS V14.01,2013-08-24 17:01:00,
2013-08-24 13:06:00,76.9,64.2,30.23,NE,46,12.0,12.0,65,0.00,,---,0.00,VWS V14.01,2013-08-24 17:06:00,
2013-08-24 13:11:00,76.7,64.9,30.23,NE,47,4.0,5.0,67,0.00,,---,0.00,VWS V14.01,2013-08-24 17:11:00,
2013-08-24 13:16:00,76.6,64.4,30.23,NE,39,7.0,9.0,66,0.00,,---,0.00,VWS V14.01,2013-08-24 17:16:00,
2013-08-24 13:21:00,77.3,64.2,30.23,NE,45,6.0,10.0,64,0.00,,---,0.00,VWS V14.01,2013-08-24 17:21:00,
2013-08-24 13:26:00,77.6,65.3,30.23,NE,39,4.0,4.0,66,0.00,,---,0.00,VWS V14.01,2013-08-24 17:26:00,
2013-08-24 13:31:00,77.8,66.0,30.23,North,11,0.0,1.0,67,0.00,,---,0.00,VWS V14.01,2013-08-24 17:31:00,
2013-08-24 13:36:00,78.0,65.3,30.23,NNE,30,1.0,2.0,65,0.00,,---,0.00,VWS V14.01,2013-08-24 17:36:00,
2013-08-24 13:41:00,77.6,64.9,30.23,NE,40,4.0,4.0,65,0.00,,---,0.00,VWS V14.01,2013-08-24 17:41:00,
2013-08-24 13:46:00,77.3,65.1,30.23,NNE,12,2.0,5.0,66,0.00,,---,0.00,VWS V14.01,2013-08-24 17:46:00,
2013-08-24 13:51:00,77.5,64.8,30.22,ENE,72,4.0,10.0,65,0.00,,---,0.00,VWS V14.01,2013-08-24 17:51:00,
2013-08-24 13:56:00,77.6,65.8,30.23,NNE,23,3.0,5.0,67,0.00,,---,0.00,VWS V14.01,2013-08-24 17:56:00,
2013-08-24 14:01:00,78.1,65.4,30.22,ENE,63,3.0,8.0,65,0.00,,---,0.00,VWS V14.01,2013-08-24 18:01:00,
2013-08-24 14:06:00,78.1,65.4,30.22,NNE,32,4.0,5.0,65,0.00,,---,0.00,VWS V14.01,2013-08-24 18:06:00,
2013-08-24 14:11:00,77.8,64.2,30.23,NE,55,3.0,7.0,63,0.00,,---,0.00,VWS V14.01,2013-08-24 18:11:00,
2013-08-24 14:16:00,78.2,66.4,30.23,NE,37,8.0,8.0,67,0.00,,---,0.00,VWS V14.01,2013-08-24 18:16:00,
2013-08-24 14:21:00,78.5,64.4,30.23,East,90,2.0,2.0,62,0.00,,---,0.00,VWS V14.01,2013-08-24 18:21:00,
2013-08-24 14:26:00,78.8,64.2,30.22,NE,46,11.0,11.0,61,0.00,,---,0.00,VWS V14.01,2013-08-24 18:26:00,
2013-08-24 14:31:00,78.6,65.0,30.22,ESE,105,3.0,9.0,63,0.00,,---,0.00,VWS V14.01,2013-08-24 18:31:00,
2013-08-24 14:36:00,78.5,64.9,30.22,NNE,32,3.0,6.0,63,0.00,,---,0.00,VWS V14.01,2013-08-24 18:36:00,
2013-08-24 14:42:00,78.6,65.0,30.22,ENE,74,1.0,6.0,63,0.00,,---,0.00,VWS V14.01,2013-08-24 18:42:00,
2013-08-24 14:47:00,78.5,64.4,30.22,NNE,30,3.0,5.0,62,0.00,,---,0.00,VWS V14.01,2013-08-24 18:47:00,
2013-08-24 14:52:00,78.9,63.8,30.22,North,3,1.0,7.0,60,0.00,,---,0.00,VWS V14.01,2013-08-24 18:52:00,
2013-08-24 14:57:00,79.2,66.0,30.22,East,99,3.0,4.0,64,0.00,,---,0.00,VWS V14.01,2013-08-24 18:57:00,
2013-08-24 15:02:00,79.5,64.4,30.22,ENE,72,3.0,9.0,60,0.00,,---,0.00,VWS V14.01,2013-08-24 19:02:00,
2013-08-24 15:07:00,79.4,63.3,30.22,SE,125,1.0,6.0,58,0.00,,---,0.00,VWS V14.01,2013-08-24 19:07:00,
2013-08-24 15:12:00,79.3,62.8,30.22,ENE,68,5.0,13.0,57,0.00,,---,0.00,VWS V14.01,2013-08-24 19:12:00,
2013-08-24 15:17:00,79.5,65.3,30.22,NNE,23,1.0,5.0,62,0.00,,---,0.00,VWS V14.01,2013-08-24 19:17:00,
2013-08-24 15:22:00,79.3,63.3,30.22,NE,46,4.0,9.0,58,0.00,,---,0.00,VWS V14.01,2013-08-24 19:22:00,
2013-08-24 15:27:00,79.5,63.9,30.21,ENE,63,11.0,11.0,59,0.00,,---,0.00,VWS V14.01,2013-08-24 19:27:00,
2013-08-24 15:32:00,79.6,64.0,30.21,East,79,4.0,7.0,59,0.00,,---,0.00,VWS V14.01,2013-08-24 19:32:00,
2013-08-24 15:37:00,79.9,63.8,30.21,NE,39,5.0,6.0,58,0.00,,---,0.00,VWS V14.01,2013-08-24 19:37:00,
2013-08-24 15:42:00,79.9,63.8,30.21,NNW,340,4.0,6.0,58,0.00,,---,0.00,VWS V14.01,2013-08-24 19:42:00,
2013-08-24 15:47:00,79.9,63.8,30.21,NNW,343,6.0,8.0,58,0.00,,---,0.00,VWS V14.01,2013-08-24 19:47:00,
2013-08-24 15:52:00,80.1,64.5,30.21,NE,49,0.0,4.0,59,0.00,,---,0.00,VWS V14.01,2013-08-24 19:52:00,
2013-08-24 15:57:00,80.2,63.6,30.21,East,84,3.0,6.0,57,0.00,,---,0.00,VWS V14.01,2013-08-24 19:57:00,
2013-08-24 16:02:00,80.1,64.5,30.21,NE,50,0.0,4.0,59,0.00,,---,0.00,VWS V14.01,2013-08-24 20:02:00,
2013-08-24 16:07:00,80.0,62.9,30.21,NNE,30,4.0,11.0,56,0.00,,---,0.00,VWS V14.01,2013-08-24 20:07:00,
2013-08-24 16:12:00,79.8,62.7,30.21,ESE,113,1.0,4.0,56,0.00,,---,0.00,VWS V14.01,2013-08-24 20:12:00,
2013-08-24 16:17:00,80.1,64.0,30.21,NE,49,6.0,6.0,58,0.00,,---,0.00,VWS V14.01,2013-08-24 20:17:00,
2013-08-24 16:22:00,80.0,62.4,30.21,ESE,115,4.0,9.0,55,0.00,,---,0.00,VWS V14.01,2013-08-24 20:22:00,
2013-08-24 16:27:00,79.9,63.3,30.21,NNE,23,1.0,11.0,57,0.00,,---,0.00,VWS V14.01,2013-08-24 20:27:00,
2013-08-24 16:32:00,80.0,62.9,30.21,NE,41,1.0,7.0,56,0.00,,---,0.00,VWS V14.01,2013-08-24 20:32:00,
2013-08-24 16:37:00,79.8,62.2,30.22,NE,51,2.0,9.0,55,0.00,,---,0.00,VWS V14.01,2013-08-24 20:37:00,
2013-08-24 16:42:00,79.7,61.1,30.22,NNE,32,2.0,10.0,53,0.00,,---,0.00,VWS V14.01,2013-08-24 20:42:00,
2013-08-24 16:47:00,79.6,61.5,30.22,NE,42,4.0,5.0,54,0.00,,---,0.00,VWS V14.01,2013-08-24 20:47:00,
2013-08-24 16:53:00,79.7,61.6,30.22,NE,56,5.0,8.0,54,0.00,,---,0.00,VWS V14.01,2013-08-24 20:53:00,
2013-08-24 16:58:00,79.7,61.6,30.22,WNW,300,1.0,7.0,54,0.00,,---,0.00,VWS V14.01,2013-08-24 20:58:00,
2013-08-24 17:03:00,79.7,62.6,30.22,ENE,58,2.0,7.0,56,0.00,,---,0.00,VWS V14.01,2013-08-24 21:03:00,
2013-08-24 17:08:00,79.8,62.2,30.22,NE,44,2.0,8.0,55,0.00,,---,0.00,VWS V14.01,2013-08-24 21:08:00,
2013-08-24 17:13:00,79.7,61.6,30.22,NE,36,6.0,6.0,54,0.00,,---,0.00,VWS V14.01,2013-08-24 21:13:00,
2013-08-24 17:18:00,79.7,62.1,30.22,ENE,65,0.0,8.0,55,0.00,,---,0.00,VWS V14.01,2013-08-24 21:18:00,
2013-08-24 17:23:00,79.8,62.7,30.22,ENE,69,1.0,5.0,56,0.00,,---,0.00,VWS V14.01,2013-08-24 21:23:00,
2013-08-24 17:28:00,79.8,62.7,30.22,NE,44,2.0,5.0,56,0.00,,---,0.00,VWS V14.01,2013-08-24 21:28:00,
2013-08-24 17:33:00,79.8,63.2,30.22,NE,46,2.0,4.0,57,0.00,,---,0.00,VWS V14.01,2013-08-24 21:33:00,
2013-08-24 17:38:00,79.9,63.8,30.22,ENE,74,1.0,4.0,58,0.00,,---,0.00,VWS V14.01,2013-08-24 21:38:00,
2013-08-24 17:43:00,79.8,63.2,30.22,NE,43,2.0,4.0,57,0.00,,---,0.00,VWS V14.01,2013-08-24 21:43:00,
2013-08-24 17:48:00,79.7,63.6,30.22,NNW,338,3.0,7.0,58,0.00,,---,0.00,VWS V14.01,2013-08-24 21:48:00,
2013-08-24 17:53:00,79.4,62.3,30.22,NNE,32,2.0,7.0,56,0.00,,---,0.00,VWS V14.01,2013-08-24 21:53:00,
2013-08-24 17:58:00,79.2,62.7,30.22,NE,53,8.0,9.0,57,0.00,,---,0.00,VWS V14.01,2013-08-24 21:58:00,
2013-08-24 18:03:00,79.1,61.6,30.22,NE,53,9.0,10.0,55,0.00,,---,0.00,VWS V14.01,2013-08-24 22:03:00,
2013-08-24 18:08:00,79.1,62.6,30.21,NE,40,2.0,3.0,57,0.00,,---,0.00,VWS V14.01,2013-08-24 22:08:00,
2013-08-24 18:13:00,78.9,62.4,30.21,NE,51,1.0,5.0,57,0.00,,---,0.00,VWS V14.01,2013-08-24 22:13:00,
2013-08-24 18:18:00,78.8,62.3,30.21,NE,40,3.0,9.0,57,0.00,,---,0.00,VWS V14.01,2013-08-24 22:18:00,
2013-08-24 18:23:00,78.5,63.0,30.21,NE,51,3.0,10.0,59,0.00,,---,0.00,VWS V14.01,2013-08-24 22:23:00,
2013-08-24 18:28:00,78.3,62.8,30.21,NE,49,4.0,7.0,59,0.00,,---,0.00,VWS V14.01,2013-08-24 22:28:00,
2013-08-24 18:33:00,78.1,63.1,30.21,NNE,32,5.0,5.0,60,0.00,,---,0.00,VWS V14.01,2013-08-24 22:33:00,
2013-08-24 18:38:00,78.0,63.0,30.21,NE,42,2.0,8.0,60,0.00,,---,0.00,VWS V14.01,2013-08-24 22:38:00,
2013-08-24 18:43:00,77.9,63.4,30.21,NE,51,2.0,7.0,61,0.00,,---,0.00,VWS V14.01,2013-08-24 22:43:00,
2013-08-24 18:49:00,77.7,63.2,30.21,NNE,32,4.0,6.0,61,0.00,,---,0.00,VWS V14.01,2013-08-24 22:49:00,
2013-08-24 18:54:00,77.6,63.1,30.21,NNE,32,2.0,6.0,61,0.00,,---,0.00,VWS V14.01,2013-08-24 22:54:00,
2013-08-24 18:59:00,77.5,63.5,30.21,ENE,67,3.0,8.0,62,0.00,,---,0.00,VWS V14.01,2013-08-24 22:59:00,
2013-08-24 19:04:00,77.3,63.3,30.22,NE,51,0.0,6.0,62,0.00,,---,0.00,VWS V14.01,2013-08-24 23:04:00,
2013-08-24 19:09:00,77.1,62.6,30.22,NE,40,1.0,6.0,61,0.00,,---,0.00,VWS V14.01,2013-08-24 23:09:00,
2013-08-24 19:14:00,76.9,63.4,30.22,NE,49,1.0,4.0,63,0.00,,---,0.00,VWS V14.01,2013-08-24 23:14:00,
2013-08-24 19:19:00,76.7,62.7,30.22,NE,44,3.0,5.0,62,0.00,,---,0.00,VWS V14.01,2013-08-24 23:19:00,
2013-08-24 19:24:00,76.5,62.5,30.22,NE,41,2.0,4.0,62,0.00,,---,0.00,VWS V14.01,2013-08-24 23:24:00,
2013-08-24 19:29:00,76.2,62.7,30.23,ENE,57,0.0,4.0,63,0.00,,---,0.00,VWS V14.01,2013-08-24 23:29:00,
2013-08-24 19:34:00,75.9,62.9,30.22,NE,40,2.0,3.0,64,0.00,,---,0.00,VWS V14.01,2013-08-24 23:34:00,
2013-08-24 19:39:00,75.6,62.6,30.22,NE,45,3.0,4.0,64,0.00,,---,0.00,VWS V14.01,2013-08-24 23:39:00,
2013-08-24 19:44:00,75.2,62.6,30.22,NE,45,0.0,4.0,65,0.00,,---,0.00,VWS V14.01,2013-08-24 23:44:00,
2013-08-24 19:49:00,74.8,62.3,30.22,NE,45,2.0,6.0,65,0.00,,---,0.00,VWS V14.01,2013-08-24 23:49:00,
2013-08-24 19:54:00,74.4,62.3,30.23,NE,40,2.0,5.0,66,0.00,,---,0.00,VWS V14.01,2013-08-24 23:54:00,
2013-08-24 19:59:00,74.1,62.0,30.23,NE,46,4.0,5.0,66,0.00,,---,0.00,VWS V14.01,2013-08-24 23:59:00,
2013-08-24 20:04:00,73.8,62.2,30.23,NE,49,2.0,6.0,67,0.00,,---,0.00,VWS V14.01,2013-08-25 00:04:00,
2013-08-24 20:09:00,73.6,62.0,30.23,NE,45,4.0,4.0,67,0.00,,---,0.00,VWS V14.01,2013-08-25 00:09:00,
2013-08-24 20:14:00,73.3,61.7,30.23,NE,41,3.0,5.0,67,0.00,,---,0.00,VWS V14.01,2013-08-25 00:14:00,
2013-08-24 20:19:00,73.1,61.9,30.23,NNE,28,3.0,5.0,68,0.00,,---,0.00,VWS V14.01,2013-08-25 00:19:00,
2013-08-24 20:24:00,72.9,61.7,30.23,NE,53,4.0,6.0,68,0.00,,---,0.00,VWS V14.01,2013-08-25 00:24:00,
2013-08-24 20:29:00,72.9,61.7,30.24,ENE,57,2.0,4.0,68,0.00,,---,0.00,VWS V14.01,2013-08-25 00:29:00,
2013-08-24 20:34:00,72.7,62.0,30.24,NE,47,1.0,5.0,69,0.00,,---,0.00,VWS V14.01,2013-08-25 00:34:00,
2013-08-24 20:39:00,72.4,61.7,30.24,NE,43,2.0,3.0,69,0.00,,---,0.00,VWS V14.01,2013-08-25 00:39:00,
2013-08-24 20:45:00,72.2,61.9,30.24,NE,34,3.0,3.0,70,0.00,,---,0.00,VWS V14.01,2013-08-25 00:45:00,
2013-08-24 20:50:00,72.1,61.8,30.24,NE,46,1.0,4.0,70,0.00,,---,0.00,VWS V14.01,2013-08-25 00:50:00,
2013-08-24 20:55:00,72.0,61.7,30.24,NE,40,1.0,5.0,70,0.00,,---,0.00,VWS V14.01,2013-08-25 00:55:00,
2013-08-24 21:00:00,71.8,61.5,30.25,NE,40,2.0,4.0,70,0.00,,---,0.00,VWS V14.01,2013-08-25 01:00:00,
2013-08-24 21:05:00,71.7,61.8,30.25,NE,44,1.0,4.0,71,0.00,,---,0.00,VWS V14.01,2013-08-25 01:05:00,
2013-08-24 21:10:00,71.5,61.6,30.25,NE,37,0.0,4.0,71,0.00,,---,0.00,VWS V14.01,2013-08-25 01:10:00,
2013-08-24 21:15:00,71.4,61.5,30.25,North,10,0.0,5.0,71,0.00,,---,0.00,VWS V14.01,2013-08-25 01:15:00,
2013-08-24 21:20:00,71.3,61.4,30.26,NE,49,3.0,4.0,71,0.00,,---,0.00,VWS V14.01,2013-08-25 01:20:00,
2013-08-24 21:25:00,71.2,61.7,30.26,NE,44,2.0,4.0,72,0.00,,---,0.00,VWS V14.01,2013-08-25 01:25:00,
2013-08-24 21:30:00,71.0,61.5,30.26,NE,34,2.0,3.0,72,0.00,,---,0.00,VWS V14.01,2013-08-25 01:30:00,
2013-08-24 21:35:00,70.8,61.7,30.26,NE,41,0.0,2.0,73,0.00,,---,0.00,VWS V14.01,2013-08-25 01:35:00,
2013-08-24 21:40:00,70.4,61.7,30.26,NE,47,1.0,3.0,74,0.00,,---,0.00,VWS V14.01,2013-08-25 01:40:00,
2013-08-24 21:45:00,70.3,61.6,30.26,NE,36,1.0,3.0,74,0.00,,---,0.00,VWS V14.01,2013-08-25 01:45:00,
2013-08-24 21:50:00,70.3,61.6,30.27,NE,39,1.0,3.0,74,0.00,,---,0.00,VWS V14.01,2013-08-25 01:50:00,
2013-08-24 21:55:00,70.2,61.9,30.27,NE,37,1.0,4.0,75,0.00,,---,0.00,VWS V14.01,2013-08-25 01:55:00,
2013-08-24 22:00:00,70.2,61.9,30.27,NE,43,2.0,3.0,75,0.00,,---,0.00,VWS V14.01,2013-08-25 02:00:00,
2013-08-24 22:05:00,70.0,61.7,30.27,NE,45,1.0,4.0,75,0.00,,---,0.00,VWS V14.01,2013-08-25 02:05:00,
2013-08-24 22:10:00,69.9,61.6,30.27,NE,34,1.0,4.0,75,0.00,,---,0.00,VWS V14.01,2013-08-25 02:10:00,
2013-08-24 22:15:00,69.9,61.6,30.26,NE,53,2.0,5.0,75,0.00,,---,0.00,VWS V14.01,2013-08-25 02:15:00,
2013-08-24 22:20:00,69.9,61.6,30.26,NE,55,1.0,6.0,75,0.00,,---,0.00,VWS V14.01,2013-08-25 02:20:00,
2013-08-24 22:25:00,69.9,61.6,30.27,NE,43,3.0,6.0,75,0.00,,---,0.00,VWS V14.01,2013-08-25 02:25:00,
2013-08-24 22:30:00,69.9,61.6,30.27,NE,39,1.0,6.0,75,0.00,,---,0.00,VWS V14.01,2013-08-25 02:30:00,
2013-08-24 22:35:00,69.8,61.5,30.27,NE,42,2.0,4.0,75,0.00,,---,0.00,VWS V14.01,2013-08-25 02:35:00,
2013-08-24 22:40:00,69.7,61.4,30.27,NE,43,0.0,4.0,75,0.00,,---,0.00,VWS V14.01,2013-08-25 02:40:00,
2013-08-24 22:45:00,69.5,61.6,30.27,NE,41,2.0,4.0,76,0.00,,---,0.00,VWS V14.01,2013-08-25 02:45:00,
2013-08-24 22:51:00,69.3,61.8,30.27,NNE,31,1.0,4.0,77,0.00,,---,0.00,VWS V14.01,2013-08-25 02:51:00,
2013-08-24 22:56:00,69.2,61.7,30.27,NNE,18,0.0,4.0,77,0.00,,---,0.00,VWS V14.01,2013-08-25 02:56:00,
2013-08-24 23:01:00,69.1,61.6,30.27,NE,43,3.0,4.0,77,0.00,,---,0.00,VWS V14.01,2013-08-25 03:01:00,
2013-08-24 23:06:00,69.0,61.5,30.27,NNE,27,0.0,5.0,77,0.00,,---,0.00,VWS V14.01,2013-08-25 03:06:00,
2013-08-24 23:11:00,69.0,61.5,30.27,NE,43,1.0,5.0,77,0.00,,---,0.00,VWS V14.01,2013-08-25 03:11:00,
2013-08-24 23:16:00,68.9,61.4,30.27,NE,46,2.0,5.0,77,0.00,,---,0.00,VWS V14.01,2013-08-25 03:16:00,
2013-08-24 23:21:00,68.9,61.4,30.28,NE,44,3.0,6.0,77,0.00,,---,0.00,VWS V14.01,2013-08-25 03:21:00,
2013-08-24 23:26:00,68.8,61.7,30.28,NE,53,0.0,4.0,78,0.00,,---,0.00,VWS V14.01,2013-08-25 03:26:00,
2013-08-24 23:31:00,68.6,61.5,30.28,NNW,335,2.0,5.0,78,0.00,,---,0.00,VWS V14.01,2013-08-25 03:31:00,
2013-08-24 23:36:00,68.5,61.7,30.28,NE,56,0.0,5.0,79,0.00,,---,0.00,VWS V14.01,2013-08-25 03:36:00,
2013-08-24 23:41:00,68.3,61.5,30.28,NE,43,0.0,4.0,79,0.00,,---,0.00,VWS V14.01,2013-08-25 03:41:00,
2013-08-24 23:46:00,68.2,61.5,30.28,NE,51,2.0,5.0,79,0.00,,---,0.00,VWS V14.01,2013-08-25 03:46:00,
2013-08-24 23:51:00,68.1,61.7,30.28,NE,39,4.0,5.0,80,0.00,,---,0.00,VWS V14.01,2013-08-25 03:51:00,
2013-08-24 23:56:00,68.1,61.7,30.29,NE,47,4.0,5.0,80,0.00,,---,0.00,VWS V14.01,2013-08-25 03:56:00,